createdAt,value
2024-04-24T00:01:33.763Z,1.57
2024-04-24T00:04:01.004Z,1.30
2024-04-24T00:06:28.237Z,1.40
2024-04-24T00:08:55.555Z,1.60
2024-04-24T00:11:25.138Z,1.23
2024-04-24T00:13:52.424Z,1.30
2024-04-24T00:16:20.301Z,0.97
2024-04-24T00:18:47.682Z,1.30
2024-04-24T00:21:14.952Z,1.00
2024-04-24T00:23:42.094Z,1.53
2024-04-24T00:26:09.234Z,1.73
2024-04-24T00:28:36.604Z,1.10
2024-04-24T00:31:03.913Z,1.00
2024-04-24T00:33:31.168Z,1.20
2024-04-24T00:35:58.337Z,1.20
2024-04-24T00:38:25.623Z,1.10
2024-04-24T00:40:52.833Z,1.40
2024-04-24T00:43:20.011Z,1.20
2024-04-24T00:45:48.228Z,1.17
2024-04-24T00:48:16.332Z,1.00
2024-04-24T00:50:44.812Z,1.53
2024-04-24T00:53:12.113Z,1.33
2024-04-24T00:55:39.615Z,1.30
2024-04-24T00:58:06.924Z,1.43
2024-04-24T01:00:35.325Z,1.23
2024-04-24T01:03:04.830Z,1.10
2024-04-24T01:05:34.475Z,1.20
2024-04-24T01:08:01.663Z,1.00
2024-04-24T01:10:28.862Z,1.20
2024-04-24T01:12:56.105Z,1.00
2024-04-24T01:15:23.310Z,0.87
2024-04-24T01:17:54.756Z,1.17
2024-04-24T01:20:27.100Z,1.07
2024-04-24T01:23:03.622Z,1.00
2024-04-24T01:26:18.950Z,1.00
2024-04-24T01:28:46.194Z,0.87
2024-04-24T01:31:13.455Z,0.80
2024-04-24T01:33:40.988Z,0.83
2024-04-24T01:36:08.353Z,0.90
2024-04-24T01:38:35.563Z,1.60
2024-04-24T01:41:02.756Z,1.10
2024-04-24T01:43:29.983Z,0.60
2024-04-24T01:45:57.174Z,1.10
2024-04-24T01:48:24.567Z,1.10
2024-04-24T01:50:51.907Z,0.90
2024-04-24T01:53:19.133Z,1.50
2024-04-24T01:55:46.416Z,1.00
2024-04-24T01:58:13.589Z,1.13
2024-04-24T02:00:40.852Z,1.80
2024-04-24T02:03:08.176Z,1.07
2024-04-24T02:05:35.753Z,1.07
2024-04-24T02:08:02.935Z,0.97
2024-04-24T02:10:30.213Z,1.07
2024-04-24T02:12:57.490Z,0.97
2024-04-24T02:15:24.873Z,1.10
2024-04-24T02:17:52.150Z,1.10
2024-04-24T02:20:19.461Z,0.87
2024-04-24T02:22:51.455Z,0.93
2024-04-24T02:25:37.924Z,1.10
2024-04-24T02:28:09.162Z,1.00
2024-04-24T02:30:36.436Z,1.33
2024-04-24T02:33:04.131Z,1.17
2024-04-24T02:35:31.457Z,1.40
2024-04-24T02:37:58.699Z,1.07
2024-04-24T02:40:25.979Z,1.30
2024-04-24T02:42:53.121Z,1.20
2024-04-24T02:45:20.248Z,1.33
2024-04-24T02:47:47.513Z,1.20
2024-04-24T02:50:14.857Z,1.00
2024-04-24T02:52:42.227Z,1.43
2024-04-24T02:55:09.394Z,1.97
2024-04-24T02:57:36.594Z,1.10
2024-04-24T03:00:04.517Z,1.20
2024-04-24T03:02:31.733Z,1.20
2024-04-24T03:04:58.964Z,1.37
2024-04-24T03:07:26.146Z,1.37
2024-04-24T03:09:53.464Z,1.07
2024-04-24T03:12:20.719Z,1.20
2024-04-24T03:14:48.027Z,1.10
2024-04-24T03:17:15.401Z,1.07
2024-04-24T03:19:42.622Z,1.23
2024-04-24T03:22:09.957Z,1.17
2024-04-24T03:24:37.106Z,1.07
2024-04-24T03:27:04.409Z,1.47
2024-04-24T03:29:32.011Z,1.07
2024-04-24T03:32:00.403Z,1.60
2024-04-24T03:34:27.921Z,1.13
2024-04-24T03:36:55.124Z,1.10
2024-04-24T03:39:22.322Z,1.13
2024-04-24T03:41:49.462Z,1.67
2024-04-24T03:44:16.714Z,1.03
2024-04-24T03:46:43.908Z,1.20
2024-04-24T03:49:11.136Z,1.43
2024-04-24T03:51:38.246Z,1.00
2024-04-24T03:54:05.829Z,1.77
2024-04-24T03:56:33.053Z,1.27
2024-04-24T03:59:00.385Z,1.30
2024-04-24T04:01:29.040Z,1.50
2024-04-24T04:03:57.189Z,1.13
2024-04-24T04:06:25.704Z,1.20
2024-04-24T04:08:52.787Z,1.30
2024-04-24T04:11:20.085Z,1.70
2024-04-24T04:13:48.634Z,1.73
2024-04-24T04:16:16.550Z,1.40
2024-04-24T04:18:43.969Z,1.43
2024-04-24T04:21:12.772Z,1.10
2024-04-24T04:23:40.418Z,1.40
2024-04-24T04:26:07.641Z,1.07
2024-04-24T04:28:34.817Z,1.37
2024-04-24T04:31:02.523Z,1.53
2024-04-24T04:33:30.349Z,1.60
2024-04-24T04:36:11.431Z,1.40
2024-04-24T04:38:47.134Z,1.70
2024-04-24T04:41:14.391Z,1.03
2024-04-24T04:43:41.540Z,1.40
2024-04-24T04:46:08.777Z,1.77
2024-04-24T04:48:36.195Z,1.40
2024-04-24T04:51:03.809Z,10.03
2024-04-24T04:53:31.316Z,9.13
2024-04-24T04:55:58.519Z,6.80
2024-04-24T04:58:25.781Z,5.00
2024-04-24T05:00:53.133Z,7.03
2024-04-24T05:03:20.615Z,4.67
2024-04-24T05:05:47.836Z,4.80
2024-04-24T05:08:14.973Z,4.30
2024-04-24T05:10:42.126Z,3.23
2024-04-24T05:13:13.139Z,3.23
2024-04-24T05:15:40.522Z,3.47
2024-04-24T05:18:08.256Z,3.03
2024-04-24T05:20:35.577Z,3.67
2024-04-24T05:23:05.529Z,3.37
2024-04-24T05:25:37.816Z,2.40
2024-04-24T05:28:27.800Z,2.73
2024-04-24T05:30:54.942Z,3.23
2024-04-24T05:33:22.165Z,2.93
2024-04-24T05:35:49.330Z,3.03
2024-04-24T05:38:16.474Z,2.70
2024-04-24T05:40:43.727Z,2.53
2024-04-24T05:43:11.963Z,2.93
2024-04-24T05:45:40.448Z,2.40
2024-04-24T05:48:07.802Z,2.40
2024-04-24T05:50:35.072Z,2.47
2024-04-24T05:53:02.175Z,1.83
2024-04-24T05:55:29.400Z,2.40
2024-04-24T05:57:56.517Z,1.77
2024-04-24T06:00:23.831Z,1.40
2024-04-24T06:02:50.970Z,2.10
2024-04-24T06:05:18.263Z,1.70
2024-04-24T06:07:45.529Z,2.47
2024-04-24T06:10:12.790Z,1.60
2024-04-24T06:12:40.271Z,2.10
2024-04-24T06:15:07.725Z,2.23
2024-04-24T06:17:35.741Z,1.60
2024-04-24T06:20:03.190Z,1.70
2024-04-24T06:22:30.330Z,1.77
2024-04-24T06:24:57.555Z,1.90
2024-04-24T06:27:24.699Z,2.17
2024-04-24T06:29:51.875Z,1.60
2024-04-24T06:32:19.178Z,1.80
2024-04-24T06:34:46.431Z,1.40
2024-04-24T06:37:13.634Z,1.57
2024-04-24T06:39:40.937Z,1.77
2024-04-24T06:42:09.587Z,2.00
2024-04-24T06:44:36.891Z,1.30
2024-04-24T06:47:04.326Z,1.60
2024-04-24T06:49:31.734Z,1.67
2024-04-24T06:51:58.931Z,2.17
2024-04-24T06:54:26.120Z,1.47
2024-04-24T06:56:54.516Z,1.97
2024-04-24T06:59:21.767Z,1.53
2024-04-24T07:01:49.065Z,1.80
2024-04-24T07:04:16.290Z,1.37
2024-04-24T07:06:43.546Z,1.33
2024-04-24T07:09:11.119Z,1.70
2024-04-24T07:11:38.320Z,1.47
2024-04-24T07:14:05.610Z,1.27
2024-04-24T07:16:33.129Z,1.73
2024-04-24T07:19:00.463Z,1.50
2024-04-24T07:21:28.948Z,1.47
2024-04-24T07:23:56.117Z,1.67
2024-04-24T07:26:23.450Z,1.40
2024-04-24T07:28:50.756Z,1.20
2024-04-24T07:31:17.924Z,1.40
2024-04-24T07:33:45.092Z,1.80
2024-04-24T07:36:12.335Z,1.30
2024-04-24T07:38:39.617Z,1.67
2024-04-24T07:41:09.039Z,1.63
2024-04-24T07:43:36.338Z,1.37
2024-04-24T07:46:05.036Z,1.33
2024-04-24T07:48:32.263Z,1.83
2024-04-24T07:50:59.693Z,1.07
2024-04-24T07:53:26.925Z,1.70
2024-04-24T07:55:54.088Z,1.27
2024-04-24T07:58:21.181Z,1.83
2024-04-24T08:00:48.563Z,1.03
2024-04-24T08:03:15.831Z,1.73
2024-04-24T08:05:43.159Z,1.57
2024-04-24T08:08:10.665Z,1.37
2024-04-24T08:10:37.840Z,1.57
2024-04-24T08:13:05.099Z,1.53
2024-04-24T08:15:32.208Z,1.20
2024-04-24T08:17:59.621Z,0.93
2024-04-24T08:20:26.892Z,1.47
2024-04-24T08:22:53.976Z,1.57
2024-04-24T08:25:21.153Z,1.40
2024-04-24T08:27:52.073Z,1.20
2024-04-24T08:30:19.353Z,1.30
2024-04-24T08:32:46.540Z,1.10
2024-04-24T08:35:13.759Z,1.27
2024-04-24T08:37:40.895Z,1.23
2024-04-24T08:40:08.459Z,1.17
2024-04-24T08:42:35.694Z,1.20
2024-04-24T08:45:03.074Z,1.30
2024-04-24T08:47:30.651Z,1.10
2024-04-24T08:49:58.003Z,0.70
2024-04-24T08:52:27.258Z,1.30
2024-04-24T08:55:01.799Z,1.07
2024-04-24T08:57:30.488Z,0.93
2024-04-24T09:00:01.050Z,1.07
2024-04-24T09:02:39.537Z,1.30
2024-04-24T09:05:11.208Z,1.10
2024-04-24T09:07:41.736Z,1.00
2024-04-24T09:10:10.483Z,0.90
2024-04-24T09:12:37.742Z,1.30
2024-04-24T09:15:05.238Z,1.00
2024-04-24T09:17:32.969Z,1.00
2024-04-24T09:20:00.274Z,0.77
2024-04-24T09:22:28.184Z,0.87
2024-04-24T09:24:57.797Z,1.13
2024-04-24T09:27:25.943Z,1.10
2024-04-24T09:29:53.252Z,1.10
2024-04-24T09:32:20.871Z,0.80
2024-04-24T09:34:49.226Z,0.80
2024-04-24T09:37:18.476Z,0.80
2024-04-24T09:39:47.108Z,1.33
2024-04-24T09:42:15.145Z,1.37
2024-04-24T09:44:47.130Z,0.90
2024-04-24T09:47:14.619Z,0.97
2024-04-24T09:49:45.573Z,1.00
2024-04-24T09:52:18.364Z,0.80
2024-04-24T09:54:46.622Z,0.90
2024-04-24T09:57:17.208Z,1.13
2024-04-24T09:59:54.740Z,1.17
2024-04-24T10:02:26.776Z,1.03
2024-04-24T10:04:58.553Z,0.87
2024-04-24T10:07:26.786Z,0.80
2024-04-24T10:09:54.811Z,1.00
2024-04-24T10:12:35.871Z,0.87
2024-04-24T10:15:13.015Z,1.10
2024-04-24T10:17:42.938Z,0.83
2024-04-24T10:20:19.524Z,1.03
2024-04-24T10:22:54.344Z,1.10
2024-04-24T10:25:23.652Z,0.77
2024-04-24T10:27:52.299Z,0.90
2024-04-24T10:30:21.608Z,0.90
2024-04-24T10:32:48.880Z,0.90
2024-04-24T10:35:16.957Z,1.03
2024-04-24T10:37:48.837Z,0.70
2024-04-24T10:40:18.477Z,1.03
2024-04-24T10:42:47.231Z,0.80
2024-04-24T10:45:18.126Z,1.03
2024-04-24T10:47:48.239Z,0.63
2024-04-24T10:50:17.038Z,0.87
2024-04-24T10:52:51.266Z,1.27
2024-04-24T10:55:19.220Z,0.80
2024-04-24T10:57:53.829Z,0.80
2024-04-24T11:00:22.563Z,1.20
2024-04-24T11:03:00.342Z,0.83
2024-04-24T11:05:34.723Z,0.80
2024-04-24T11:08:05.356Z,0.83
2024-04-24T11:10:34.121Z,0.87
2024-04-24T11:13:03.972Z,0.93
2024-04-24T11:15:31.239Z,1.03
2024-04-24T11:17:58.597Z,1.70
2024-04-24T11:20:28.453Z,1.23
2024-04-24T11:22:55.955Z,0.80
2024-04-24T11:25:23.247Z,1.00
2024-04-24T11:27:50.456Z,0.80
2024-04-24T11:30:22.092Z,0.90
2024-04-24T11:32:51.514Z,0.70
2024-04-24T11:35:22.409Z,0.93
2024-04-24T11:37:51.291Z,0.80
2024-04-24T11:40:19.058Z,0.80
2024-04-24T11:42:47.663Z,1.10
2024-04-24T11:45:20.134Z,1.10
2024-04-24T11:47:54.652Z,0.90
2024-04-24T11:50:22.741Z,0.77
2024-04-24T11:52:50.203Z,0.70
2024-04-24T11:55:18.557Z,1.37
2024-04-24T11:57:48.785Z,1.00
2024-04-24T12:00:16.140Z,0.90
2024-04-24T12:02:43.544Z,1.10
2024-04-24T12:05:12.212Z,1.50
2024-04-24T12:07:44.255Z,1.50
2024-04-24T12:10:12.325Z,1.57
2024-04-24T12:12:42.815Z,1.73
2024-04-24T12:15:13.935Z,1.60
2024-04-24T12:17:41.093Z,1.17
2024-04-24T12:20:08.585Z,1.50
2024-04-24T12:22:35.807Z,1.30
2024-04-24T12:25:02.950Z,1.17
2024-04-24T12:27:30.101Z,1.67
2024-04-24T12:29:59.465Z,1.80
2024-04-24T12:32:26.818Z,1.10
2024-04-24T12:34:54.120Z,1.10
2024-04-24T12:37:21.269Z,1.20
2024-04-24T12:39:49.365Z,1.20
2024-04-24T12:42:16.567Z,2.07
2024-04-24T12:44:43.706Z,1.07
2024-04-24T12:47:13.846Z,0.80
2024-04-24T12:49:41.029Z,0.90
2024-04-24T12:52:08.123Z,1.17
2024-04-24T12:54:39.029Z,0.90
2024-04-24T12:57:06.805Z,1.20
2024-04-24T12:59:34.085Z,0.70
2024-04-24T13:02:01.324Z,1.20
2024-04-24T13:04:28.601Z,0.90
2024-04-24T13:06:57.888Z,0.90
2024-04-24T13:09:25.051Z,1.40
2024-04-24T13:11:52.603Z,1.37
2024-04-24T13:14:19.845Z,1.13
2024-04-24T13:16:47.108Z,1.00
2024-04-24T13:19:14.578Z,1.40
2024-04-24T13:21:42.027Z,0.80
2024-04-24T13:24:09.208Z,1.37
2024-04-24T13:26:36.534Z,1.10
2024-04-24T13:29:03.784Z,1.00
2024-04-24T13:31:30.943Z,0.80
2024-04-24T13:33:58.208Z,1.30
2024-04-24T13:36:25.456Z,0.90
2024-04-24T13:38:56.114Z,0.93
2024-04-24T13:41:23.306Z,1.33
2024-04-24T13:43:53.688Z,1.30
2024-04-24T13:46:20.973Z,1.20
2024-04-24T13:48:48.633Z,0.97
2024-04-24T13:51:16.072Z,1.20
2024-04-24T13:53:43.309Z,1.37
2024-04-24T13:56:10.575Z,0.87
2024-04-24T13:58:38.402Z,1.10
2024-04-24T14:01:05.812Z,1.30
2024-04-24T14:03:33.089Z,1.47
2024-04-24T14:06:01.416Z,1.00
2024-04-24T14:08:28.658Z,1.30
2024-04-24T14:10:56.035Z,1.20
2024-04-24T14:13:23.209Z,1.23
2024-04-24T14:15:50.376Z,1.47
2024-04-24T14:18:17.508Z,1.00
2024-04-24T14:20:44.608Z,0.67
2024-04-24T14:23:11.765Z,0.90
2024-04-24T14:25:39.206Z,2.17
2024-04-24T14:28:06.519Z,1.10
2024-04-24T14:30:33.788Z,1.20
2024-04-24T14:33:01.103Z,0.83
2024-04-24T14:35:28.649Z,1.27
2024-04-24T14:37:56.691Z,1.40
2024-04-24T14:40:24.400Z,1.20
2024-04-24T14:42:51.586Z,1.30
2024-04-24T14:45:18.942Z,1.00
2024-04-24T14:47:46.722Z,0.80
2024-04-24T14:50:14.777Z,0.60
2024-04-24T14:52:42.348Z,0.80
2024-04-24T14:55:10.557Z,0.80
2024-04-24T14:57:37.852Z,0.80
2024-04-24T15:00:05.550Z,1.23
2024-04-24T15:02:32.793Z,0.90
2024-04-24T15:05:00.041Z,0.97
2024-04-24T15:07:27.242Z,1.10
2024-04-24T15:09:55.847Z,0.90
2024-04-24T15:12:23.016Z,1.07
2024-04-24T15:14:52.144Z,1.17
2024-04-24T15:17:19.571Z,1.17
2024-04-24T15:19:46.874Z,0.70
2024-04-24T15:22:14.022Z,1.00
2024-04-24T15:24:41.493Z,0.70
2024-04-24T15:27:08.643Z,0.70
2024-04-24T15:29:35.872Z,1.23
2024-04-24T15:32:03.668Z,0.50
2024-04-24T15:34:31.084Z,1.00
2024-04-24T15:36:58.459Z,0.90
2024-04-24T15:39:34.718Z,1.53
2024-04-24T15:42:03.916Z,0.60
2024-04-24T15:44:31.448Z,0.80
2024-04-24T15:46:58.800Z,0.73
2024-04-24T15:49:25.965Z,0.60
2024-04-24T15:51:54.683Z,1.00
2024-04-24T15:54:23.148Z,0.87
2024-04-24T15:56:50.500Z,0.90
2024-04-24T15:59:17.729Z,0.80
2024-04-24T16:01:44.963Z,0.67
2024-04-24T16:04:12.115Z,0.80
2024-04-24T16:06:39.506Z,1.10
2024-04-24T16:09:06.711Z,0.87
2024-04-24T16:11:34.190Z,0.70
2024-04-24T16:14:01.453Z,0.63
2024-04-24T16:16:28.611Z,1.00
2024-04-24T16:18:58.600Z,0.80
2024-04-24T16:21:28.102Z,0.83
2024-04-24T16:23:55.290Z,0.70
2024-04-24T16:26:22.480Z,0.70
2024-04-24T16:28:49.762Z,0.83
2024-04-24T16:31:17.255Z,1.10
2024-04-24T16:33:44.593Z,0.73
2024-04-24T16:36:13.912Z,0.93
2024-04-24T16:38:41.775Z,1.00
2024-04-24T16:41:18.206Z,0.70
2024-04-24T16:43:52.380Z,1.10
2024-04-24T16:46:20.984Z,0.83
2024-04-24T16:48:48.720Z,0.70
2024-04-24T16:51:16.011Z,0.70
2024-04-24T16:53:46.721Z,0.50
2024-04-24T16:56:18.145Z,0.60
2024-04-24T16:58:46.876Z,0.87
2024-04-24T17:01:14.397Z,0.93
2024-04-24T17:03:44.345Z,0.90
2024-04-24T17:06:11.852Z,1.00
2024-04-24T17:08:38.981Z,0.77
2024-04-24T17:11:06.171Z,0.77
2024-04-24T17:13:33.390Z,0.73
2024-04-24T17:16:01.444Z,1.07
2024-04-24T17:18:34.409Z,0.60
2024-04-24T17:21:03.577Z,0.53
2024-04-24T17:23:30.743Z,0.73
2024-04-24T17:25:58.033Z,0.60
2024-04-24T17:28:25.358Z,0.70
2024-04-24T17:30:52.657Z,0.60
2024-04-24T17:33:19.880Z,0.63
2024-04-24T17:35:50.669Z,0.53
2024-04-24T17:38:19.018Z,0.60
2024-04-24T17:40:46.626Z,0.70
2024-04-24T17:43:13.947Z,0.70
2024-04-24T17:45:42.144Z,0.90
2024-04-24T17:48:09.897Z,0.87
2024-04-24T17:50:37.317Z,0.53
2024-04-24T17:53:05.805Z,0.80
2024-04-24T17:55:33.701Z,0.93
2024-04-24T17:58:01.469Z,0.80
2024-04-24T18:00:28.753Z,0.60
2024-04-24T18:02:55.953Z,0.90
2024-04-24T18:05:23.973Z,1.13
2024-04-24T18:07:51.411Z,0.83
2024-04-24T18:10:18.725Z,0.90
2024-04-24T18:12:46.233Z,0.80
2024-04-24T18:15:13.387Z,1.27
2024-04-24T18:17:40.571Z,0.80
2024-04-24T18:20:08.299Z,0.83
2024-04-24T18:22:35.686Z,0.80
2024-04-24T18:25:03.175Z,1.17
2024-04-24T18:27:33.328Z,1.00
2024-04-24T18:30:00.458Z,0.70
2024-04-24T18:32:28.936Z,0.90
2024-04-24T18:34:56.211Z,0.80
2024-04-24T18:37:24.175Z,0.93
2024-04-24T18:39:51.976Z,0.90
2024-04-24T18:42:19.470Z,1.10
2024-04-24T18:44:48.884Z,0.60
2024-04-24T18:47:21.889Z,0.87
2024-04-24T18:49:49.267Z,1.10
2024-04-24T18:52:18.917Z,0.90
2024-04-24T18:54:47.446Z,1.00
2024-04-24T18:57:14.604Z,0.70
2024-04-24T18:59:42.762Z,0.93
2024-04-24T19:02:09.931Z,0.87
2024-04-24T19:04:37.067Z,0.70
2024-04-24T19:07:04.279Z,0.90
2024-04-24T19:09:31.498Z,1.60
2024-04-24T19:11:59.827Z,1.20
2024-04-24T19:14:27.157Z,1.73
2024-04-24T19:16:54.913Z,1.10
2024-04-24T19:19:22.153Z,1.30
2024-04-24T19:21:49.336Z,1.03
2024-04-24T19:24:16.810Z,1.10
2024-04-24T19:26:44.056Z,1.00
2024-04-24T19:29:11.229Z,1.33
2024-04-24T19:31:39.095Z,1.20
2024-04-24T19:34:10.738Z,1.30
2024-04-24T19:36:38.413Z,2.43
2024-04-24T19:39:05.648Z,1.40
2024-04-24T19:41:34.040Z,1.10
2024-04-24T19:44:06.791Z,0.90
2024-04-24T19:46:35.397Z,1.30
2024-04-24T19:49:03.572Z,0.90
2024-04-24T19:51:30.885Z,1.30
2024-04-24T19:57:06.824Z,1.43
2024-04-24T19:59:34.601Z,1.20
2024-04-24T20:02:04.610Z,1.20
2024-04-24T20:04:32.700Z,1.07
2024-04-24T20:06:59.987Z,1.00
2024-04-24T20:09:28.882Z,1.23
2024-04-24T20:11:56.672Z,0.87
2024-04-24T20:14:24.217Z,1.53
2024-04-24T20:16:51.705Z,1.30
2024-04-24T20:19:19.909Z,1.50
2024-04-24T20:21:49.036Z,1.00
2024-04-24T20:24:20.695Z,0.80
2024-04-24T20:26:52.150Z,1.00
2024-04-24T20:29:20.403Z,0.90
2024-04-24T20:31:48.007Z,1.10
2024-04-24T20:34:17.499Z,0.97
2024-04-24T20:36:44.662Z,1.10
2024-04-24T20:39:11.887Z,1.67
2024-04-24T20:41:42.449Z,1.20
2024-04-24T20:44:09.702Z,1.23
2024-04-24T20:46:41.860Z,0.80
2024-04-24T20:49:12.319Z,1.80
2024-04-24T20:51:42.919Z,1.00
2024-04-24T20:54:10.782Z,0.90
2024-04-24T20:56:41.134Z,1.00
2024-04-24T20:59:08.611Z,0.87
2024-04-24T21:01:38.554Z,1.10
2024-04-24T21:04:05.990Z,1.07
2024-04-24T21:06:33.565Z,1.10
2024-04-24T21:09:02.602Z,1.10
2024-04-24T21:11:34.448Z,1.43
2024-04-24T21:14:02.413Z,1.07
2024-04-24T21:16:34.499Z,0.90
2024-04-24T21:19:04.706Z,0.57
2024-04-24T21:21:35.320Z,1.30
2024-04-24T21:24:06.120Z,1.10
2024-04-24T21:26:33.381Z,0.70
2024-04-24T21:29:00.708Z,1.20
2024-04-24T21:31:28.549Z,1.20
2024-04-24T21:33:55.764Z,0.90
2024-04-24T21:36:23.174Z,0.83
2024-04-24T21:38:50.703Z,0.80
2024-04-24T21:41:22.424Z,1.10
2024-04-24T21:43:52.127Z,0.97
2024-04-24T21:46:22.366Z,0.77
2024-04-24T21:48:49.925Z,0.97
2024-04-24T21:51:17.207Z,1.00
2024-04-24T21:53:44.528Z,0.90
2024-04-24T21:56:11.885Z,1.00
2024-04-24T21:58:40.214Z,1.20
2024-04-24T22:01:09.071Z,0.80
2024-04-24T22:03:36.425Z,0.80
2024-04-24T22:06:03.876Z,0.67
2024-04-24T22:08:31.549Z,0.70
2024-04-24T22:10:58.878Z,0.93
2024-04-24T22:13:26.618Z,0.97
2024-04-24T22:15:53.951Z,1.20
2024-04-24T22:18:21.331Z,0.67
2024-04-24T22:20:48.822Z,0.67
2024-04-24T22:23:16.092Z,0.90
2024-04-24T22:25:44.173Z,0.80
2024-04-24T22:28:13.430Z,0.93
2024-04-24T22:30:41.742Z,0.70
2024-04-24T22:33:09.012Z,0.87
2024-04-24T22:35:36.376Z,0.90
2024-04-24T22:38:03.734Z,0.70
2024-04-24T22:40:31.040Z,0.80
2024-04-24T22:42:58.217Z,0.63
2024-04-24T22:45:25.925Z,0.70
2024-04-24T22:47:53.627Z,0.80
2024-04-24T22:50:24.229Z,0.80
2024-04-24T22:52:51.422Z,0.73
2024-04-24T22:55:18.527Z,0.90
2024-04-24T22:57:45.627Z,0.80
2024-04-24T23:00:17.718Z,0.70
2024-04-24T23:02:45.029Z,1.00
2024-04-24T23:05:12.338Z,0.80
2024-04-24T23:07:39.712Z,0.60
2024-04-24T23:10:07.214Z,1.70
2024-04-24T23:12:34.359Z,1.07
2024-04-24T23:15:01.505Z,1.53
2024-04-24T23:17:29.189Z,1.00
2024-04-24T23:19:56.481Z,0.90
2024-04-24T23:22:23.683Z,0.87
2024-04-24T23:24:50.906Z,0.93
2024-04-24T23:27:18.292Z,0.50
2024-04-24T23:29:45.490Z,0.67
2024-04-24T23:32:12.864Z,0.80
2024-04-24T23:34:40.012Z,0.70
2024-04-24T23:37:07.188Z,0.87
2024-04-24T23:39:34.699Z,0.70
2024-04-24T23:42:01.882Z,0.77
2024-04-24T23:44:29.081Z,0.87
2024-04-24T23:46:56.984Z,0.80
2024-04-24T23:49:24.169Z,0.77
2024-04-24T23:51:51.353Z,0.80
2024-04-24T23:54:18.558Z,1.10
2024-04-24T23:56:45.730Z,0.90
2024-04-24T23:59:15.216Z,0.90
